sensor_id;sensor_type;location;lat;lon;timestamp;P1;durP1;ratioP1;P2;durP2;ratioP2
16813;SDS011;8524;57.650;11.926;2023-12-04T00:01:11;6.40;;;5.80;;
16813;SDS011;8524;57.650;11.926;2023-12-04T00:03:39;6.78;;;6.13;;
16813;SDS011;8524;57.650;11.926;2023-12-04T00:06:06;5.80;;;5.30;;
16813;SDS011;8524;57.650;11.926;2023-12-04T00:08:35;6.35;;;5.75;;
16813;SDS011;8524;57.650;11.926;2023-12-04T00:11:02;5.10;;;4.67;;
16813;SDS011;8524;57.650;11.926;2023-12-04T00:13:29;5.63;;;5.03;;
16813;SDS011;8524;57.650;11.926;2023-12-04T00:15:56;5.97;;;4.73;;
16813;SDS011;8524;57.650;11.926;2023-12-04T00:18:23;5.57;;;5.07;;
16813;SDS011;8524;57.650;11.926;2023-12-04T00:20:51;6.07;;;5.57;;
16813;SDS011;8524;57.650;11.926;2023-12-04T00:23:18;5.75;;;5.25;;
16813;SDS011;8524;57.650;11.926;2023-12-04T00:25:45;6.10;;;5.60;;
16813;SDS011;8524;57.650;11.926;2023-12-04T00:28:12;6.15;;;5.55;;
16813;SDS011;8524;57.650;11.926;2023-12-04T00:30:39;5.60;;;5.00;;
16813;SDS011;8524;57.650;11.926;2023-12-04T00:33:06;5.70;;;4.90;;
16813;SDS011;8524;57.650;11.926;2023-12-04T00:35:33;6.27;;;5.17;;
16813;SDS011;8524;57.650;11.926;2023-12-04T00:38:01;6.40;;;5.70;;
16813;SDS011;8524;57.650;11.926;2023-12-04T00:40:28;6.38;;;5.78;;
16813;SDS011;8524;57.650;11.926;2023-12-04T00:42:55;6.22;;;5.63;;
16813;SDS011;8524;57.650;11.926;2023-12-04T00:45:22;5.85;;;5.35;;
16813;SDS011;8524;57.650;11.926;2023-12-04T00:47:49;5.45;;;4.95;;
16813;SDS011;8524;57.650;11.926;2023-12-04T00:50:16;5.47;;;5.00;;
16813;SDS011;8524;57.650;11.926;2023-12-04T00:52:43;5.82;;;5.30;;
16813;SDS011;8524;57.650;11.926;2023-12-04T00:55:11;5.45;;;4.93;;
16813;SDS011;8524;57.650;11.926;2023-12-04T00:57:38;5.03;;;4.20;;
16813;SDS011;8524;57.650;11.926;2023-12-04T01:00:06;5.73;;;4.40;;
16813;SDS011;8524;57.650;11.926;2023-12-04T01:02:33;6.00;;;4.67;;
16813;SDS011;8524;57.650;11.926;2023-12-04T01:05:00;5.53;;;4.63;;
16813;SDS011;8524;57.650;11.926;2023-12-04T01:07:27;5.27;;;4.27;;
16813;SDS011;8524;57.650;11.926;2023-12-04T01:09:54;5.43;;;4.93;;
16813;SDS011;8524;57.650;11.926;2023-12-04T01:12:23;5.40;;;4.90;;
16813;SDS011;8524;57.650;11.926;2023-12-04T01:14:50;4.82;;;4.43;;
16813;SDS011;8524;57.650;11.926;2023-12-04T01:17:17;5.60;;;4.75;;
16813;SDS011;8524;57.650;11.926;2023-12-04T01:19:44;5.20;;;4.70;;
16813;SDS011;8524;57.650;11.926;2023-12-04T01:22:11;5.30;;;4.80;;
16813;SDS011;8524;57.650;11.926;2023-12-04T01:24:37;4.90;;;4.40;;
16813;SDS011;8524;57.650;11.926;2023-12-04T01:27:04;5.00;;;4.50;;
16813;SDS011;8524;57.650;11.926;2023-12-04T01:29:33;4.27;;;3.87;;
16813;SDS011;8524;57.650;11.926;2023-12-04T01:31:59;4.10;;;3.67;;
16813;SDS011;8524;57.650;11.926;2023-12-04T01:34:26;4.93;;;4.43;;
16813;SDS011;8524;57.650;11.926;2023-12-04T01:36:53;5.20;;;4.75;;
16813;SDS011;8524;57.650;11.926;2023-12-04T01:39:20;5.13;;;4.63;;
16813;SDS011;8524;57.650;11.926;2023-12-04T01:41:47;4.88;;;4.47;;
16813;SDS011;8524;57.650;11.926;2023-12-04T01:44:14;5.00;;;4.25;;
16813;SDS011;8524;57.650;11.926;2023-12-04T01:46:44;5.00;;;4.50;;
16813;SDS011;8524;57.650;11.926;2023-12-04T01:49:11;5.80;;;4.50;;
16813;SDS011;8524;57.650;11.926;2023-12-04T01:51:38;4.40;;;3.90;;
16813;SDS011;8524;57.650;11.926;2023-12-04T01:54:05;5.38;;;4.88;;
16813;SDS011;8524;57.650;11.926;2023-12-04T01:56:33;5.38;;;4.88;;
16813;SDS011;8524;57.650;11.926;2023-12-04T01:59:02;5.50;;;4.57;;
16813;SDS011;8524;57.650;11.926;2023-12-04T02:01:29;4.70;;;4.00;;
16813;SDS011;8524;57.650;11.926;2023-12-04T02:03:58;4.37;;;3.90;;
16813;SDS011;8524;57.650;11.926;2023-12-04T02:06:27;6.17;;;4.23;;
16813;SDS011;8524;57.650;11.926;2023-12-04T02:08:54;4.70;;;4.30;;
16813;SDS011;8524;57.650;11.926;2023-12-04T02:11:22;4.17;;;3.83;;
16813;SDS011;8524;57.650;11.926;2023-12-04T02:13:49;4.80;;;4.40;;
16813;SDS011;8524;57.650;11.926;2023-12-04T02:16:16;4.40;;;4.00;;
16813;SDS011;8524;57.650;11.926;2023-12-04T02:18:45;4.55;;;4.15;;
16813;SDS011;8524;57.650;11.926;2023-12-04T02:21:14;4.32;;;3.90;;
16813;SDS011;8524;57.650;11.926;2023-12-04T02:23:41;4.00;;;3.60;;
16813;SDS011;8524;57.650;11.926;2023-12-04T02:26:10;4.33;;;3.53;;
16813;SDS011;8524;57.650;11.926;2023-12-04T02:28:42;4.60;;;4.20;;
16813;SDS011;8524;57.650;11.926;2023-12-04T02:31:16;4.43;;;4.03;;
16813;SDS011;8524;57.650;11.926;2023-12-04T02:33:45;4.65;;;4.25;;
16813;SDS011;8524;57.650;11.926;2023-12-04T02:36:14;4.97;;;4.47;;
16813;SDS011;8524;57.650;11.926;2023-12-04T02:38:42;4.25;;;3.85;;
16813;SDS011;8524;57.650;11.926;2023-12-04T02:41:10;4.35;;;3.95;;
16813;SDS011;8524;57.650;11.926;2023-12-04T02:43:37;4.85;;;4.35;;
16813;SDS011;8524;57.650;11.926;2023-12-04T02:46:04;4.67;;;4.27;;
16813;SDS011;8524;57.650;11.926;2023-12-04T02:48:32;4.35;;;3.95;;
16813;SDS011;8524;57.650;11.926;2023-12-04T02:50:58;4.35;;;3.95;;
16813;SDS011;8524;57.650;11.926;2023-12-04T02:53:25;4.18;;;3.78;;
16813;SDS011;8524;57.650;11.926;2023-12-04T02:55:52;4.10;;;3.70;;
16813;SDS011;8524;57.650;11.926;2023-12-04T02:58:20;4.00;;;3.60;;
16813;SDS011;8524;57.650;11.926;2023-12-04T03:00:47;5.63;;;3.93;;
16813;SDS011;8524;57.650;11.926;2023-12-04T03:03:15;4.38;;;4.00;;
16813;SDS011;8524;57.650;11.926;2023-12-04T03:05:41;4.00;;;3.70;;
16813;SDS011;8524;57.650;11.926;2023-12-04T03:08:08;4.13;;;3.83;;
16813;SDS011;8524;57.650;11.926;2023-12-04T03:10:35;4.32;;;3.97;;
16813;SDS011;8524;57.650;11.926;2023-12-04T03:13:02;4.30;;;3.90;;
16813;SDS011;8524;57.650;11.926;2023-12-04T03:15:30;4.80;;;4.40;;
16813;SDS011;8524;57.650;11.926;2023-12-04T03:17:58;3.92;;;3.63;;
16813;SDS011;8524;57.650;11.926;2023-12-04T03:20:26;3.90;;;3.60;;
16813;SDS011;8524;57.650;11.926;2023-12-04T03:22:52;4.10;;;3.40;;
16813;SDS011;8524;57.650;11.926;2023-12-04T03:25:20;3.60;;;3.30;;
16813;SDS011;8524;57.650;11.926;2023-12-04T03:27:47;3.70;;;3.40;;
16813;SDS011;8524;57.650;11.926;2023-12-04T03:30:14;3.47;;;3.17;;
16813;SDS011;8524;57.650;11.926;2023-12-04T03:32:42;4.07;;;3.77;;
16813;SDS011;8524;57.650;11.926;2023-12-04T03:35:09;5.03;;;4.18;;
16813;SDS011;8524;57.650;11.926;2023-12-04T03:37:36;4.07;;;3.78;;
16813;SDS011;8524;57.650;11.926;2023-12-04T03:40:03;3.67;;;3.38;;
16813;SDS011;8524;57.650;11.926;2023-12-04T03:42:31;3.70;;;3.40;;
16813;SDS011;8524;57.650;11.926;2023-12-04T03:44:58;3.50;;;3.20;;
16813;SDS011;8524;57.650;11.926;2023-12-04T03:47:25;3.60;;;3.30;;
16813;SDS011;8524;57.650;11.926;2023-12-04T03:49:53;3.63;;;3.27;;
16813;SDS011;8524;57.650;11.926;2023-12-04T03:52:20;3.20;;;2.90;;
16813;SDS011;8524;57.650;11.926;2023-12-04T03:54:47;3.95;;;3.55;;
16813;SDS011;8524;57.650;11.926;2023-12-04T03:57:14;3.78;;;3.47;;
16813;SDS011;8524;57.650;11.926;2023-12-04T03:59:41;3.93;;;3.63;;
16813;SDS011;8524;57.650;11.926;2023-12-04T04:02:09;4.40;;;4.00;;
16813;SDS011;8524;57.650;11.926;2023-12-04T04:04:36;3.63;;;3.30;;
16813;SDS011;8524;57.650;11.926;2023-12-04T04:07:04;3.45;;;3.15;;
16813;SDS011;8524;57.650;11.926;2023-12-04T04:09:31;3.80;;;3.40;;
16813;SDS011;8524;57.650;11.926;2023-12-04T04:11:58;3.70;;;3.40;;
16813;SDS011;8524;57.650;11.926;2023-12-04T04:14:25;3.70;;;3.40;;
16813;SDS011;8524;57.650;11.926;2023-12-04T04:16:52;3.65;;;3.35;;
16813;SDS011;8524;57.650;11.926;2023-12-04T04:19:19;3.70;;;3.40;;
16813;SDS011;8524;57.650;11.926;2023-12-04T04:21:46;3.20;;;2.90;;
16813;SDS011;8524;57.650;11.926;2023-12-04T04:24:14;3.22;;;2.90;;
16813;SDS011;8524;57.650;11.926;2023-12-04T04:26:41;4.47;;;3.10;;
16813;SDS011;8524;57.650;11.926;2023-12-04T04:29:08;3.50;;;3.20;;
16813;SDS011;8524;57.650;11.926;2023-12-04T04:31:34;3.55;;;3.25;;
16813;SDS011;8524;57.650;11.926;2023-12-04T04:34:01;3.70;;;3.40;;
16813;SDS011;8524;57.650;11.926;2023-12-04T04:36:28;3.63;;;3.33;;
16813;SDS011;8524;57.650;11.926;2023-12-04T04:38:55;3.63;;;3.33;;
16813;SDS011;8524;57.650;11.926;2023-12-04T04:41:23;3.25;;;2.95;;
16813;SDS011;8524;57.650;11.926;2023-12-04T04:43:50;3.47;;;3.17;;
16813;SDS011;8524;57.650;11.926;2023-12-04T04:46:18;3.40;;;3.10;;
16813;SDS011;8524;57.650;11.926;2023-12-04T04:48:45;3.50;;;3.20;;
16813;SDS011;8524;57.650;11.926;2023-12-04T04:51:12;3.22;;;2.92;;
16813;SDS011;8524;57.650;11.926;2023-12-04T04:53:39;3.25;;;3.03;;
16813;SDS011;8524;57.650;11.926;2023-12-04T04:56:07;3.35;;;3.05;;
16813;SDS011;8524;57.650;11.926;2023-12-04T04:58:37;3.40;;;3.10;;
16813;SDS011;8524;57.650;11.926;2023-12-04T05:01:04;3.00;;;2.80;;
16813;SDS011;8524;57.650;11.926;2023-12-04T05:03:31;3.10;;;2.80;;
16813;SDS011;8524;57.650;11.926;2023-12-04T05:05:58;3.15;;;2.90;;
16813;SDS011;8524;57.650;11.926;2023-12-04T05:08:28;3.80;;;3.50;;
16813;SDS011;8524;57.650;11.926;2023-12-04T05:10:55;3.58;;;3.28;;
16813;SDS011;8524;57.650;11.926;2023-12-04T05:13:22;3.70;;;3.30;;
16813;SDS011;8524;57.650;11.926;2023-12-04T05:15:50;3.17;;;2.87;;
16813;SDS011;8524;57.650;11.926;2023-12-04T05:18:17;2.85;;;2.65;;
16813;SDS011;8524;57.650;11.926;2023-12-04T05:20:43;3.63;;;3.33;;
16813;SDS011;8524;57.650;11.926;2023-12-04T05:23:09;3.55;;;3.25;;
16813;SDS011;8524;57.650;11.926;2023-12-04T05:25:36;3.38;;;3.08;;
16813;SDS011;8524;57.650;11.926;2023-12-04T05:28:03;3.33;;;3.03;;
16813;SDS011;8524;57.650;11.926;2023-12-04T05:30:30;3.13;;;2.67;;
16813;SDS011;8524;57.650;11.926;2023-12-04T05:32:59;3.40;;;3.10;;
16813;SDS011;8524;57.650;11.926;2023-12-04T05:35:27;3.63;;;3.30;;
16813;SDS011;8524;57.650;11.926;2023-12-04T05:37:54;2.63;;;2.43;;
16813;SDS011;8524;57.650;11.926;2023-12-04T05:40:21;3.65;;;3.35;;
16813;SDS011;8524;57.650;11.926;2023-12-04T05:42:48;3.38;;;3.08;;
16813;SDS011;8524;57.650;11.926;2023-12-04T05:45:15;3.63;;;3.33;;
16813;SDS011;8524;57.650;11.926;2023-12-04T05:47:42;3.57;;;3.27;;
16813;SDS011;8524;57.650;11.926;2023-12-04T05:50:10;3.53;;;3.22;;
16813;SDS011;8524;57.650;11.926;2023-12-04T05:52:37;3.60;;;3.20;;
16813;SDS011;8524;57.650;11.926;2023-12-04T05:55:04;3.87;;;3.10;;
16813;SDS011;8524;57.650;11.926;2023-12-04T05:57:31;3.90;;;3.58;;
16813;SDS011;8524;57.650;11.926;2023-12-04T05:59:58;3.40;;;3.10;;
16813;SDS011;8524;57.650;11.926;2023-12-04T06:02:25;3.90;;;3.43;;
16813;SDS011;8524;57.650;11.926;2023-12-04T06:04:55;3.80;;;3.50;;
16813;SDS011;8524;57.650;11.926;2023-12-04T06:07:23;5.10;;;3.00;;
16813;SDS011;8524;57.650;11.926;2023-12-04T06:09:50;3.50;;;3.10;;
16813;SDS011;8524;57.650;11.926;2023-12-04T06:12:17;3.80;;;3.50;;
16813;SDS011;8524;57.650;11.926;2023-12-04T06:14:43;4.30;;;3.50;;
16813;SDS011;8524;57.650;11.926;2023-12-04T06:17:10;3.70;;;3.40;;
16813;SDS011;8524;57.650;11.926;2023-12-04T06:19:37;3.65;;;3.35;;
16813;SDS011;8524;57.650;11.926;2023-12-04T06:22:04;4.00;;;3.60;;
16813;SDS011;8524;57.650;11.926;2023-12-04T06:24:33;3.75;;;3.45;;
16813;SDS011;8524;57.650;11.926;2023-12-04T06:27:01;3.17;;;2.93;;
16813;SDS011;8524;57.650;11.926;2023-12-04T06:29:29;3.73;;;3.33;;
16813;SDS011;8524;57.650;11.926;2023-12-04T06:31:57;3.78;;;3.42;;
16813;SDS011;8524;57.650;11.926;2023-12-04T06:34:25;4.40;;;3.50;;
16813;SDS011;8524;57.650;11.926;2023-12-04T06:36:52;4.10;;;3.72;;
16813;SDS011;8524;57.650;11.926;2023-12-04T06:39:21;4.67;;;3.23;;
16813;SDS011;8524;57.650;11.926;2023-12-04T06:41:51;2.93;;;2.63;;
16813;SDS011;8524;57.650;11.926;2023-12-04T06:44:19;3.45;;;3.05;;
16813;SDS011;8524;57.650;11.926;2023-12-04T06:46:47;3.10;;;2.77;;
16813;SDS011;8524;57.650;11.926;2023-12-04T06:49:16;4.00;;;3.60;;
16813;SDS011;8524;57.650;11.926;2023-12-04T06:51:44;3.70;;;3.37;;
16813;SDS011;8524;57.650;11.926;2023-12-04T06:54:11;3.97;;;3.58;;
16813;SDS011;8524;57.650;11.926;2023-12-04T06:56:38;3.80;;;3.40;;
16813;SDS011;8524;57.650;11.926;2023-12-04T06:59:07;3.47;;;3.17;;
16813;SDS011;8524;57.650;11.926;2023-12-04T07:01:33;3.20;;;2.90;;
16813;SDS011;8524;57.650;11.926;2023-12-04T07:04:00;3.63;;;3.33;;
16813;SDS011;8524;57.650;11.926;2023-12-04T07:06:34;3.40;;;3.00;;
16813;SDS011;8524;57.650;11.926;2023-12-04T07:09:01;3.20;;;2.92;;
16813;SDS011;8524;57.650;11.926;2023-12-04T07:11:29;3.37;;;2.77;;
16813;SDS011;8524;57.650;11.926;2023-12-04T07:13:57;3.38;;;3.08;;
16813;SDS011;8524;57.650;11.926;2023-12-04T07:16:25;2.87;;;2.60;;
16813;SDS011;8524;57.650;11.926;2023-12-04T07:18:52;3.42;;;3.13;;
16813;SDS011;8524;57.650;11.926;2023-12-04T07:21:20;3.92;;;3.42;;
16813;SDS011;8524;57.650;11.926;2023-12-04T07:23:48;3.00;;;2.80;;
16813;SDS011;8524;57.650;11.926;2023-12-04T07:26:14;3.10;;;2.67;;
16813;SDS011;8524;57.650;11.926;2023-12-04T07:28:42;2.80;;;2.60;;
16813;SDS011;8524;57.650;11.926;2023-12-04T07:31:09;3.40;;;3.10;;
16813;SDS011;8524;57.650;11.926;2023-12-04T07:33:38;3.03;;;2.83;;
16813;SDS011;8524;57.650;11.926;2023-12-04T07:36:05;4.13;;;3.75;;
16813;SDS011;8524;57.650;11.926;2023-12-04T07:38:32;3.63;;;3.10;;
16813;SDS011;8524;57.650;11.926;2023-12-04T07:40:59;3.40;;;3.00;;
16813;SDS011;8524;57.650;11.926;2023-12-04T07:43:26;3.60;;;3.17;;
16813;SDS011;8524;57.650;11.926;2023-12-04T07:45:54;3.77;;;3.40;;
16813;SDS011;8524;57.650;11.926;2023-12-04T07:48:22;3.63;;;3.30;;
16813;SDS011;8524;57.650;11.926;2023-12-04T07:50:51;3.13;;;2.67;;
16813;SDS011;8524;57.650;11.926;2023-12-04T07:53:18;3.50;;;2.97;;
16813;SDS011;8524;57.650;11.926;2023-12-04T07:55:45;3.80;;;3.50;;
16813;SDS011;8524;57.650;11.926;2023-12-04T07:58:13;3.60;;;3.13;;
16813;SDS011;8524;57.650;11.926;2023-12-04T08:00:40;3.50;;;3.20;;
16813;SDS011;8524;57.650;11.926;2023-12-04T08:03:07;3.78;;;3.00;;
16813;SDS011;8524;57.650;11.926;2023-12-04T08:05:34;3.70;;;2.80;;
16813;SDS011;8524;57.650;11.926;2023-12-04T08:08:03;3.97;;;2.80;;
16813;SDS011;8524;57.650;11.926;2023-12-04T08:10:30;3.60;;;3.17;;
16813;SDS011;8524;57.650;11.926;2023-12-04T08:12:57;3.23;;;2.80;;
16813;SDS011;8524;57.650;11.926;2023-12-04T08:15:25;2.67;;;2.47;;
16813;SDS011;8524;57.650;11.926;2023-12-04T08:17:52;3.73;;;3.00;;
16813;SDS011;8524;57.650;11.926;2023-12-04T08:20:20;3.27;;;2.97;;
16813;SDS011;8524;57.650;11.926;2023-12-04T08:22:48;3.20;;;2.70;;
16813;SDS011;8524;57.650;11.926;2023-12-04T08:25:17;3.50;;;3.20;;
16813;SDS011;8524;57.650;11.926;2023-12-04T08:27:44;3.23;;;2.87;;
16813;SDS011;8524;57.650;11.926;2023-12-04T08:30:11;3.70;;;3.30;;
16813;SDS011;8524;57.650;11.926;2023-12-04T08:32:41;3.47;;;2.97;;
16813;SDS011;8524;57.650;11.926;2023-12-04T08:35:09;3.80;;;3.40;;
16813;SDS011;8524;57.650;11.926;2023-12-04T08:37:36;2.97;;;2.67;;
16813;SDS011;8524;57.650;11.926;2023-12-04T08:40:04;4.77;;;3.60;;
16813;SDS011;8524;57.650;11.926;2023-12-04T08:42:34;4.13;;;3.17;;
16813;SDS011;8524;57.650;11.926;2023-12-04T08:45:02;3.87;;;3.20;;
16813;SDS011;8524;57.650;11.926;2023-12-04T08:47:31;3.30;;;3.00;;
16813;SDS011;8524;57.650;11.926;2023-12-04T08:49:59;2.83;;;2.53;;
16813;SDS011;8524;57.650;11.926;2023-12-04T08:52:26;4.07;;;3.67;;
16813;SDS011;8524;57.650;11.926;2023-12-04T08:54:53;3.93;;;3.00;;
16813;SDS011;8524;57.650;11.926;2023-12-04T08:57:20;3.33;;;3.00;;
16813;SDS011;8524;57.650;11.926;2023-12-04T08:59:48;3.63;;;3.00;;
16813;SDS011;8524;57.650;11.926;2023-12-04T09:02:15;3.70;;;2.80;;
16813;SDS011;8524;57.650;11.926;2023-12-04T09:04:43;5.33;;;3.40;;
16813;SDS011;8524;57.650;11.926;2023-12-04T09:07:10;3.40;;;3.10;;
16813;SDS011;8524;57.650;11.926;2023-12-04T09:09:36;3.93;;;3.03;;
16813;SDS011;8524;57.650;11.926;2023-12-04T09:12:04;4.33;;;3.20;;
16813;SDS011;8524;57.650;11.926;2023-12-04T09:14:32;3.50;;;3.20;;
16813;SDS011;8524;57.650;11.926;2023-12-04T09:17:01;5.20;;;3.77;;
16813;SDS011;8524;57.650;11.926;2023-12-04T09:19:28;4.30;;;3.27;;
16813;SDS011;8524;57.650;11.926;2023-12-04T09:21:55;4.13;;;3.10;;
16813;SDS011;8524;57.650;11.926;2023-12-04T09:24:22;3.40;;;3.03;;
16813;SDS011;8524;57.650;11.926;2023-12-04T09:26:49;3.57;;;3.23;;
16813;SDS011;8524;57.650;11.926;2023-12-04T09:29:16;3.90;;;3.60;;
16813;SDS011;8524;57.650;11.926;2023-12-04T09:31:44;3.80;;;3.40;;
16813;SDS011;8524;57.650;11.926;2023-12-04T09:34:12;3.07;;;2.87;;
16813;SDS011;8524;57.650;11.926;2023-12-04T09:36:39;3.40;;;2.80;;
16813;SDS011;8524;57.650;11.926;2023-12-04T09:39:06;3.87;;;3.00;;
16813;SDS011;8524;57.650;11.926;2023-12-04T09:41:33;3.37;;;3.07;;
16813;SDS011;8524;57.650;11.926;2023-12-04T09:44:00;4.13;;;3.50;;
16813;SDS011;8524;57.650;11.926;2023-12-04T09:46:27;3.30;;;2.77;;
16813;SDS011;8524;57.650;11.926;2023-12-04T09:48:54;4.37;;;3.30;;
16813;SDS011;8524;57.650;11.926;2023-12-04T09:51:25;4.93;;;3.33;;
16813;SDS011;8524;57.650;11.926;2023-12-04T09:53:54;3.93;;;3.53;;
16813;SDS011;8524;57.650;11.926;2023-12-04T09:56:22;3.03;;;2.67;;
16813;SDS011;8524;57.650;11.926;2023-12-04T09:58:51;3.77;;;3.40;;
16813;SDS011;8524;57.650;11.926;2023-12-04T10:01:23;3.77;;;3.33;;
16813;SDS011;8524;57.650;11.926;2023-12-04T10:03:51;3.80;;;2.87;;
16813;SDS011;8524;57.650;11.926;2023-12-04T10:06:18;3.78;;;2.90;;
16813;SDS011;8524;57.650;11.926;2023-12-04T10:08:47;3.83;;;3.07;;
16813;SDS011;8524;57.650;11.926;2023-12-04T10:11:14;2.90;;;2.60;;
16813;SDS011;8524;57.650;11.926;2023-12-04T10:13:44;3.53;;;3.07;;
16813;SDS011;8524;57.650;11.926;2023-12-04T10:16:11;4.80;;;2.93;;
16813;SDS011;8524;57.650;11.926;2023-12-04T10:18:38;6.53;;;3.13;;
16813;SDS011;8524;57.650;11.926;2023-12-04T10:21:05;3.17;;;2.83;;
16813;SDS011;8524;57.650;11.926;2023-12-04T10:23:36;3.33;;;2.70;;
16813;SDS011;8524;57.650;11.926;2023-12-04T10:26:06;3.50;;;3.10;;
16813;SDS011;8524;57.650;11.926;2023-12-04T10:28:33;3.70;;;2.90;;
16813;SDS011;8524;57.650;11.926;2023-12-04T10:31:08;2.63;;;2.43;;
16813;SDS011;8524;57.650;11.926;2023-12-04T10:33:35;3.13;;;2.83;;
16813;SDS011;8524;57.650;11.926;2023-12-04T10:36:03;3.37;;;3.07;;
16813;SDS011;8524;57.650;11.926;2023-12-04T10:38:37;2.90;;;2.60;;
16813;SDS011;8524;57.650;11.926;2023-12-04T10:41:11;3.70;;;2.70;;
16813;SDS011;8524;57.650;11.926;2023-12-04T10:43:38;4.03;;;2.60;;
16813;SDS011;8524;57.650;11.926;2023-12-04T10:46:14;3.38;;;2.58;;
16813;SDS011;8524;57.650;11.926;2023-12-04T10:48:42;4.17;;;2.67;;
16813;SDS011;8524;57.650;11.926;2023-12-04T10:51:11;3.85;;;3.25;;
16813;SDS011;8524;57.650;11.926;2023-12-04T10:53:39;2.90;;;2.60;;
16813;SDS011;8524;57.650;11.926;2023-12-04T10:56:08;3.20;;;2.90;;
16813;SDS011;8524;57.650;11.926;2023-12-04T10:58:36;3.17;;;2.77;;
16813;SDS011;8524;57.650;11.926;2023-12-04T11:01:06;2.87;;;2.40;;
16813;SDS011;8524;57.650;11.926;2023-12-04T11:03:37;3.50;;;3.00;;
16813;SDS011;8524;57.650;11.926;2023-12-04T11:06:10;3.30;;;2.40;;
16813;SDS011;8524;57.650;11.926;2023-12-04T11:08:39;2.83;;;2.50;;
16813;SDS011;8524;57.650;11.926;2023-12-04T11:11:12;2.87;;;2.60;;
16813;SDS011;8524;57.650;11.926;2023-12-04T11:13:41;3.07;;;2.87;;
16813;SDS011;8524;57.650;11.926;2023-12-04T11:16:12;5.17;;;2.50;;
16813;SDS011;8524;57.650;11.926;2023-12-04T11:18:48;3.63;;;2.50;;
16813;SDS011;8524;57.650;11.926;2023-12-04T11:21:21;3.13;;;2.80;;
16813;SDS011;8524;57.650;11.926;2023-12-04T11:23:49;4.17;;;3.03;;
16813;SDS011;8524;57.650;11.926;2023-12-04T11:26:16;3.73;;;2.83;;
16813;SDS011;8524;57.650;11.926;2023-12-04T11:28:44;3.57;;;2.47;;
16813;SDS011;8524;57.650;11.926;2023-12-04T11:31:11;3.10;;;2.70;;
16813;SDS011;8524;57.650;11.926;2023-12-04T11:33:40;3.17;;;2.67;;
16813;SDS011;8524;57.650;11.926;2023-12-04T11:36:10;3.67;;;3.30;;
16813;SDS011;8524;57.650;11.926;2023-12-04T11:38:43;3.90;;;3.30;;
16813;SDS011;8524;57.650;11.926;2023-12-04T11:41:16;3.37;;;3.07;;
16813;SDS011;8524;57.650;11.926;2023-12-04T11:43:45;3.27;;;2.70;;
16813;SDS011;8524;57.650;11.926;2023-12-04T11:46:12;3.37;;;2.87;;
16813;SDS011;8524;57.650;11.926;2023-12-04T11:48:45;4.03;;;3.07;;
16813;SDS011;8524;57.650;11.926;2023-12-04T11:51:15;4.30;;;3.70;;
16813;SDS011;8524;57.650;11.926;2023-12-04T11:54:14;3.70;;;3.20;;
16813;SDS011;8524;57.650;11.926;2023-12-04T11:56:43;6.33;;;3.63;;
16813;SDS011;8524;57.650;11.926;2023-12-04T11:59:23;4.60;;;4.00;;
16813;SDS011;8524;57.650;11.926;2023-12-04T12:01:52;4.57;;;3.40;;
16813;SDS011;8524;57.650;11.926;2023-12-04T12:04:21;6.07;;;4.03;;
16813;SDS011;8524;57.650;11.926;2023-12-04T12:06:49;6.83;;;4.07;;
16813;SDS011;8524;57.650;11.926;2023-12-04T12:09:17;4.93;;;3.80;;
16813;SDS011;8524;57.650;11.926;2023-12-04T12:11:44;4.00;;;3.50;;
16813;SDS011;8524;57.650;11.926;2023-12-04T12:14:11;5.03;;;3.50;;
16813;SDS011;8524;57.650;11.926;2023-12-04T12:16:39;7.77;;;4.00;;
16813;SDS011;8524;57.650;11.926;2023-12-04T12:19:06;4.73;;;3.47;;
16813;SDS011;8524;57.650;11.926;2023-12-04T12:21:33;6.20;;;3.97;;
16813;SDS011;8524;57.650;11.926;2023-12-04T12:24:02;4.87;;;4.23;;
16813;SDS011;8524;57.650;11.926;2023-12-04T12:26:31;5.30;;;4.20;;
16813;SDS011;8524;57.650;11.926;2023-12-04T12:28:58;5.87;;;4.10;;
16813;SDS011;8524;57.650;11.926;2023-12-04T12:31:25;5.40;;;4.43;;
16813;SDS011;8524;57.650;11.926;2023-12-04T12:33:52;7.93;;;4.33;;
16813;SDS011;8524;57.650;11.926;2023-12-04T12:36:21;4.63;;;4.03;;
16813;SDS011;8524;57.650;11.926;2023-12-04T12:38:48;6.50;;;3.53;;
16813;SDS011;8524;57.650;11.926;2023-12-04T12:41:17;6.47;;;4.20;;
16813;SDS011;8524;57.650;11.926;2023-12-04T12:43:45;5.03;;;3.80;;
16813;SDS011;8524;57.650;11.926;2023-12-04T12:46:12;4.40;;;3.50;;
16813;SDS011;8524;57.650;11.926;2023-12-04T12:48:39;5.60;;;3.80;;
16813;SDS011;8524;57.650;11.926;2023-12-04T12:51:09;5.77;;;4.40;;
16813;SDS011;8524;57.650;11.926;2023-12-04T12:53:37;6.37;;;4.77;;
16813;SDS011;8524;57.650;11.926;2023-12-04T12:56:04;6.37;;;4.03;;
16813;SDS011;8524;57.650;11.926;2023-12-04T12:58:33;6.70;;;4.63;;
16813;SDS011;8524;57.650;11.926;2023-12-04T13:01:00;5.73;;;3.97;;
16813;SDS011;8524;57.650;11.926;2023-12-04T13:03:27;6.27;;;4.80;;
16813;SDS011;8524;57.650;11.926;2023-12-04T13:05:56;6.57;;;4.40;;
16813;SDS011;8524;57.650;11.926;2023-12-04T13:08:23;5.53;;;4.13;;
16813;SDS011;8524;57.650;11.926;2023-12-04T13:10:50;7.10;;;4.80;;
16813;SDS011;8524;57.650;11.926;2023-12-04T13:13:18;6.30;;;4.13;;
16813;SDS011;8524;57.650;11.926;2023-12-04T13:15:46;7.40;;;5.50;;
16813;SDS011;8524;57.650;11.926;2023-12-04T13:18:13;8.17;;;4.90;;
16813;SDS011;8524;57.650;11.926;2023-12-04T13:20:40;7.30;;;4.70;;
16813;SDS011;8524;57.650;11.926;2023-12-04T13:23:08;6.40;;;4.57;;
16813;SDS011;8524;57.650;11.926;2023-12-04T13:25:35;7.43;;;6.10;;
16813;SDS011;8524;57.650;11.926;2023-12-04T13:28:02;7.17;;;4.77;;
16813;SDS011;8524;57.650;11.926;2023-12-04T13:30:29;7.93;;;5.67;;
16813;SDS011;8524;57.650;11.926;2023-12-04T13:32:57;9.47;;;5.93;;
16813;SDS011;8524;57.650;11.926;2023-12-04T13:35:24;11.07;;;5.67;;
16813;SDS011;8524;57.650;11.926;2023-12-04T13:37:51;8.87;;;5.97;;
16813;SDS011;8524;57.650;11.926;2023-12-04T13:40:20;9.13;;;5.73;;
16813;SDS011;8524;57.650;11.926;2023-12-04T13:42:51;10.90;;;6.40;;
16813;SDS011;8524;57.650;11.926;2023-12-04T13:45:36;7.93;;;5.20;;
16813;SDS011;8524;57.650;11.926;2023-12-04T13:48:04;10.07;;;5.80;;
16813;SDS011;8524;57.650;11.926;2023-12-04T13:50:31;9.23;;;5.87;;
16813;SDS011;8524;57.650;11.926;2023-12-04T13:52:58;9.63;;;7.20;;
16813;SDS011;8524;57.650;11.926;2023-12-04T13:55:26;10.47;;;7.20;;
16813;SDS011;8524;57.650;11.926;2023-12-04T13:58:12;7.17;;;5.37;;
16813;SDS011;8524;57.650;11.926;2023-12-04T14:01:02;11.40;;;6.73;;
16813;SDS011;8524;57.650;11.926;2023-12-04T14:03:39;10.70;;;7.07;;
16813;SDS011;8524;57.650;11.926;2023-12-04T14:06:06;10.27;;;7.00;;
16813;SDS011;8524;57.650;11.926;2023-12-04T14:08:34;9.40;;;6.27;;
16813;SDS011;8524;57.650;11.926;2023-12-04T14:11:01;10.23;;;6.90;;
16813;SDS011;8524;57.650;11.926;2023-12-04T14:13:28;8.73;;;6.50;;
16813;SDS011;8524;57.650;11.926;2023-12-04T14:15:56;9.83;;;7.00;;
16813;SDS011;8524;57.650;11.926;2023-12-04T14:18:23;11.02;;;8.80;;
16813;SDS011;8524;57.650;11.926;2023-12-04T14:20:53;9.60;;;6.80;;
16813;SDS011;8524;57.650;11.926;2023-12-04T14:23:20;9.47;;;6.43;;
16813;SDS011;8524;57.650;11.926;2023-12-04T14:25:47;9.43;;;7.10;;
16813;SDS011;8524;57.650;11.926;2023-12-04T14:28:14;8.63;;;6.67;;
16813;SDS011;8524;57.650;11.926;2023-12-04T14:30:41;10.10;;;7.67;;
16813;SDS011;8524;57.650;11.926;2023-12-04T14:33:09;10.00;;;7.30;;
16813;SDS011;8524;57.650;11.926;2023-12-04T14:35:36;9.63;;;6.60;;
16813;SDS011;8524;57.650;11.926;2023-12-04T14:38:04;11.60;;;7.37;;
16813;SDS011;8524;57.650;11.926;2023-12-04T14:40:31;12.03;;;7.70;;
16813;SDS011;8524;57.650;11.926;2023-12-04T14:42:58;10.30;;;7.00;;
16813;SDS011;8524;57.650;11.926;2023-12-04T14:45:25;12.52;;;7.75;;
16813;SDS011;8524;57.650;11.926;2023-12-04T14:47:52;11.80;;;8.17;;
16813;SDS011;8524;57.650;11.926;2023-12-04T14:50:21;10.33;;;7.33;;
16813;SDS011;8524;57.650;11.926;2023-12-04T14:52:49;9.43;;;6.77;;